createdAt,value
2024-03-11T00:00:02.264Z,17.52
2024-03-11T00:02:29.099Z,17.52
2024-03-11T00:04:56.048Z,16.17
2024-03-11T00:07:22.917Z,17.48
2024-03-11T00:09:50.018Z,16.15
2024-03-11T00:12:18.743Z,16.73
2024-03-11T00:14:48.618Z,15.27
2024-03-11T00:17:16.079Z,16.95
2024-03-11T00:19:43.009Z,17.08
2024-03-11T00:22:09.778Z,17.65
2024-03-11T00:24:36.614Z,17.42
2024-03-11T00:27:08.871Z,16.52
2024-03-11T00:29:38.588Z,16.13
2024-03-11T00:32:09.252Z,16.15
2024-03-11T00:34:36.311Z,15.18
2024-03-11T00:37:03.522Z,16.10
2024-03-11T00:39:31.538Z,16.15
2024-03-11T00:41:58.538Z,14.73
2024-03-11T00:44:25.383Z,14.32
2024-03-11T00:46:52.263Z,14.20
2024-03-11T00:49:20.764Z,15.35
2024-03-11T00:51:47.606Z,13.68
2024-03-11T00:54:14.718Z,13.70
2024-03-11T00:56:41.572Z,14.32
2024-03-11T00:59:10.745Z,12.48
2024-03-11T01:01:37.473Z,13.48
2024-03-11T01:04:04.542Z,13.15
2024-03-11T01:06:31.494Z,11.88
2024-03-11T01:08:58.886Z,12.70
2024-03-11T01:11:26.076Z,11.85
2024-03-11T01:13:54.880Z,11.40
2024-03-11T01:16:22.523Z,11.35
2024-03-11T01:18:50.843Z,10.88
2024-03-11T01:21:21.896Z,10.13
2024-03-11T01:23:48.828Z,9.40
2024-03-11T01:26:15.874Z,8.85
2024-03-11T01:28:42.852Z,8.32
2024-03-11T01:31:11.609Z,7.90
2024-03-11T01:33:38.475Z,7.38
2024-03-11T01:36:05.501Z,6.65
2024-03-11T01:38:32.401Z,6.45
2024-03-11T01:40:59.161Z,6.32
2024-03-11T01:43:26.013Z,5.72
2024-03-11T01:45:54.516Z,5.97
2024-03-11T01:48:21.478Z,6.50
2024-03-11T01:50:49.123Z,5.80
2024-03-11T01:53:16.958Z,6.15
2024-03-11T01:55:47.313Z,6.43
2024-03-11T01:58:15.157Z,5.80
2024-03-11T02:00:42.968Z,5.80
2024-03-11T02:03:09.779Z,6.15
2024-03-11T02:05:41.650Z,5.22
2024-03-11T02:08:09.030Z,5.13
2024-03-11T02:10:36.126Z,5.03
2024-03-11T02:13:03.122Z,5.55
2024-03-11T02:15:30.150Z,4.97
2024-03-11T02:17:57.601Z,4.97
2024-03-11T02:20:24.710Z,5.13
2024-03-11T02:22:56.574Z,4.57
2024-03-11T02:25:29.398Z,4.18
2024-03-11T02:27:59.359Z,3.95
2024-03-11T02:30:27.002Z,4.10
2024-03-11T02:32:54.083Z,3.58
2024-03-11T02:35:21.384Z,3.42
2024-03-11T02:37:49.595Z,3.42
2024-03-11T02:40:20.472Z,3.45
2024-03-11T02:42:47.611Z,3.67
2024-03-11T02:45:16.279Z,3.70
2024-03-11T02:47:44.440Z,4.10
2024-03-11T02:50:11.894Z,3.88
2024-03-11T02:52:38.909Z,4.05
2024-03-11T02:55:07.010Z,3.63
2024-03-11T02:57:35.074Z,4.10
2024-03-11T03:00:02.195Z,3.60
2024-03-11T03:02:29.302Z,3.35
2024-03-11T03:04:57.167Z,3.50
2024-03-11T03:07:26.828Z,2.90
2024-03-11T03:09:54.462Z,3.00
2024-03-11T03:12:21.718Z,3.53
2024-03-11T03:14:48.754Z,3.22
2024-03-11T03:17:15.705Z,3.40
2024-03-11T03:19:42.529Z,2.97
2024-03-11T03:22:09.323Z,2.88
2024-03-11T03:24:36.148Z,2.65
2024-03-11T03:27:02.994Z,2.65
2024-03-11T03:29:31.762Z,2.60
2024-03-11T03:31:59.029Z,2.63
2024-03-11T03:34:25.826Z,2.50
2024-03-11T03:36:52.659Z,2.75
2024-03-11T03:39:19.421Z,2.70
2024-03-11T03:41:46.361Z,2.60
2024-03-11T03:44:13.500Z,2.92
2024-03-11T03:46:41.338Z,2.58
2024-03-11T03:49:08.864Z,2.30
2024-03-11T03:51:35.636Z,2.55
2024-03-11T03:54:02.435Z,2.85
2024-03-11T03:56:30.485Z,2.85
2024-03-11T03:58:57.616Z,2.45
2024-03-11T04:01:24.903Z,2.22
2024-03-11T04:03:51.821Z,2.13
2024-03-11T04:06:18.690Z,2.50
2024-03-11T04:08:45.611Z,2.72
2024-03-11T04:11:12.745Z,2.20
2024-03-11T04:13:41.191Z,2.20
2024-03-11T04:16:08.585Z,2.08
2024-03-11T04:18:35.677Z,2.60
2024-03-11T04:21:07.067Z,1.73
2024-03-11T04:23:34.183Z,1.92
2024-03-11T04:26:02.382Z,2.25
2024-03-11T04:28:29.938Z,1.90
2024-03-11T04:30:56.981Z,2.40
2024-03-11T04:33:24.137Z,1.92
2024-03-11T04:35:51.176Z,1.98
2024-03-11T04:38:19.408Z,1.77
2024-03-11T04:40:46.374Z,1.70
2024-03-11T04:43:13.153Z,1.92
2024-03-11T04:45:40.886Z,1.85
2024-03-11T04:48:09.454Z,1.73
2024-03-11T04:50:41.881Z,1.65
2024-03-11T04:53:10.561Z,1.58
2024-03-11T04:55:40.282Z,1.83
2024-03-11T04:58:07.013Z,2.05
2024-03-11T05:00:34.089Z,1.77
2024-03-11T05:03:05.386Z,1.75
2024-03-11T05:05:34.043Z,1.80
2024-03-11T05:08:01.178Z,1.65
2024-03-11T05:10:28.055Z,1.60
2024-03-11T05:12:54.905Z,1.65
2024-03-11T05:15:22.712Z,1.45
2024-03-11T05:17:50.712Z,1.65
2024-03-11T05:20:18.269Z,1.50
2024-03-11T05:22:46.259Z,1.50
2024-03-11T05:25:15.781Z,1.77
2024-03-11T05:27:44.338Z,1.40
2024-03-11T05:30:11.451Z,1.33
2024-03-11T05:32:38.356Z,1.80
2024-03-11T05:35:05.608Z,1.60
2024-03-11T05:37:35.139Z,1.40
2024-03-11T05:40:04.652Z,1.15
2024-03-11T05:42:31.341Z,1.35
2024-03-11T05:44:58.134Z,1.60
2024-03-11T05:47:27.865Z,1.50
2024-03-11T05:49:55.346Z,1.50
2024-03-11T05:52:25.932Z,1.35
2024-03-11T05:54:58.121Z,1.13
2024-03-11T05:57:30.643Z,1.80
2024-03-11T06:00:01.243Z,1.33
2024-03-11T06:02:27.964Z,2.78
2024-03-11T06:04:54.666Z,1.90
2024-03-11T06:07:24.764Z,2.15
2024-03-11T06:09:52.581Z,1.30
2024-03-11T06:12:22.691Z,3.42
2024-03-11T06:14:50.439Z,2.50
2024-03-11T06:17:18.019Z,1.50
2024-03-11T06:19:46.029Z,1.65
2024-03-11T06:22:16.397Z,1.70
2024-03-11T06:24:43.477Z,2.08
2024-03-11T06:27:10.231Z,2.28
2024-03-11T06:29:37.123Z,1.55
2024-03-11T06:32:07.438Z,2.88
2024-03-11T06:34:36.076Z,1.40
2024-03-11T06:37:03.393Z,1.38
2024-03-11T06:39:32.798Z,1.05
2024-03-11T06:42:01.111Z,2.05
2024-03-11T06:44:33.627Z,1.48
2024-03-11T06:47:09.349Z,2.15
2024-03-11T06:49:36.276Z,1.20
2024-03-11T06:52:03.156Z,1.83
2024-03-11T06:54:30.407Z,3.53
2024-03-11T06:56:57.188Z,2.97
2024-03-11T06:59:27.011Z,2.60
2024-03-11T07:01:54.260Z,2.60
2024-03-11T07:04:21.590Z,1.50
2024-03-11T07:06:49.730Z,1.50
2024-03-11T07:09:16.586Z,1.50
2024-03-11T07:11:44.216Z,1.20
2024-03-11T07:14:15.332Z,1.17
2024-03-11T07:16:44.872Z,1.63
2024-03-11T07:19:12.420Z,1.40
2024-03-11T07:21:40.219Z,1.25
2024-03-11T07:24:07.631Z,1.38
2024-03-11T07:26:34.450Z,1.40
2024-03-11T07:29:01.239Z,1.30
2024-03-11T07:31:28.043Z,1.13
2024-03-11T07:33:55.460Z,1.15
2024-03-11T07:36:23.094Z,1.13
2024-03-11T07:38:50.258Z,1.27
2024-03-11T07:41:17.367Z,1.40
2024-03-11T07:43:44.639Z,1.33
2024-03-11T07:46:12.724Z,1.70
2024-03-11T07:48:40.574Z,1.50
2024-03-11T07:51:09.151Z,1.10
2024-03-11T07:53:36.306Z,1.38
2024-03-11T07:56:05.099Z,1.80
2024-03-11T07:58:35.500Z,1.20
2024-03-11T08:01:03.056Z,1.08
2024-03-11T08:03:31.205Z,1.50
2024-03-11T08:05:59.514Z,1.40
2024-03-11T08:08:27.064Z,1.58
2024-03-11T08:10:54.846Z,1.33
2024-03-11T08:13:21.647Z,1.70
2024-03-11T08:15:48.431Z,1.40
2024-03-11T08:18:15.202Z,1.27
2024-03-11T08:20:42.097Z,1.45
2024-03-11T08:23:09.455Z,1.60
2024-03-11T08:25:36.948Z,1.73
2024-03-11T08:28:03.964Z,1.80
2024-03-11T08:30:32.063Z,1.92
2024-03-11T08:33:01.249Z,2.08
2024-03-11T08:35:28.394Z,1.73
2024-03-11T08:37:55.240Z,2.00
2024-03-11T08:40:23.658Z,3.55
2024-03-11T08:42:53.876Z,2.03
2024-03-11T08:45:21.927Z,1.63
2024-03-11T08:47:49.329Z,2.30
2024-03-11T08:50:23.136Z,2.00
2024-03-11T08:52:50.800Z,1.45
2024-03-11T08:55:18.238Z,1.70
2024-03-11T08:57:48.350Z,1.70
2024-03-11T09:00:19.012Z,1.60
2024-03-11T09:02:46.612Z,1.67
2024-03-11T09:05:14.437Z,1.20
2024-03-11T09:07:41.949Z,1.30
2024-03-11T09:10:10.637Z,1.50
2024-03-11T09:12:41.830Z,1.08
2024-03-11T09:15:16.730Z,1.10
2024-03-11T09:17:50.836Z,1.65
2024-03-11T09:20:21.396Z,2.03
2024-03-11T09:22:53.266Z,1.67
2024-03-11T09:25:25.040Z,1.60
2024-03-11T09:27:56.478Z,2.70
2024-03-11T09:30:23.591Z,1.35
2024-03-11T09:32:51.499Z,2.35
2024-03-11T09:35:19.292Z,4.18
2024-03-11T09:37:53.580Z,2.83
2024-03-11T09:40:24.341Z,4.25
2024-03-11T09:42:55.883Z,2.65
2024-03-11T09:45:25.640Z,4.25
2024-03-11T09:47:57.063Z,2.40
2024-03-11T09:50:31.683Z,2.25
2024-03-11T09:53:07.664Z,1.50
2024-03-11T09:55:35.558Z,1.42
2024-03-11T09:58:11.517Z,1.00
2024-03-11T10:00:53.829Z,0.95
2024-03-11T10:03:23.968Z,7.50
2024-03-11T10:05:59.177Z,1.40
2024-03-11T10:08:27.136Z,1.70
2024-03-11T10:11:13.065Z,0.95
2024-03-11T10:13:39.995Z,1.60
2024-03-11T10:16:25.863Z,0.70
2024-03-11T10:18:53.696Z,0.90
2024-03-11T10:21:20.759Z,0.93
2024-03-11T10:23:49.922Z,2.00
2024-03-11T10:26:26.321Z,1.00
2024-03-11T10:28:53.281Z,0.90
2024-03-11T10:31:22.877Z,0.85
2024-03-11T10:33:52.684Z,0.85
2024-03-11T10:36:26.402Z,0.88
2024-03-11T10:38:58.692Z,0.63
2024-03-11T10:41:26.322Z,1.02
2024-03-11T10:43:56.242Z,1.30
2024-03-11T10:46:26.042Z,1.02
2024-03-11T10:48:53.154Z,0.90
2024-03-11T10:51:22.878Z,0.98
2024-03-11T10:53:54.896Z,0.90
2024-03-11T10:56:24.877Z,1.48
2024-03-11T10:58:55.881Z,0.90
2024-03-11T11:01:34.778Z,0.88
2024-03-11T11:04:30.532Z,1.33
2024-03-11T11:07:01.692Z,1.60
2024-03-11T11:09:29.181Z,0.82
2024-03-11T11:11:57.187Z,0.52
2024-03-11T11:14:30.541Z,0.70
2024-03-11T11:16:58.511Z,0.63
2024-03-11T11:19:33.131Z,0.77
2024-03-11T11:22:02.778Z,0.50
2024-03-11T11:24:34.824Z,0.55
2024-03-11T11:27:07.616Z,0.50
2024-03-11T11:29:34.869Z,1.00
2024-03-11T11:32:10.122Z,1.20
2024-03-11T11:34:45.880Z,0.57
2024-03-11T11:37:19.750Z,0.50
2024-03-11T11:39:47.080Z,1.48
2024-03-11T11:42:34.022Z,0.73
2024-03-11T11:45:00.794Z,0.82
2024-03-11T11:47:28.511Z,0.80
2024-03-11T11:49:58.990Z,0.70
2024-03-11T11:52:29.888Z,0.45
2024-03-11T11:54:57.264Z,0.45
2024-03-11T11:57:25.705Z,0.68
2024-03-11T11:59:54.003Z,2.17
2024-03-11T12:02:32.611Z,1.58
2024-03-11T12:05:06.640Z,0.98
2024-03-11T12:07:39.711Z,0.80
2024-03-11T12:10:08.392Z,0.70
2024-03-11T12:12:46.725Z,0.68
2024-03-11T12:15:19.257Z,1.25
2024-03-11T12:17:54.830Z,0.60
2024-03-11T12:20:31.666Z,0.85
2024-03-11T12:22:59.280Z,1.90
2024-03-11T12:25:29.290Z,0.90
2024-03-11T12:28:03.348Z,0.95
2024-03-11T12:30:40.150Z,0.85
2024-03-11T12:33:09.982Z,0.68
2024-03-11T12:35:44.285Z,0.70
2024-03-11T12:38:12.109Z,0.52
2024-03-11T12:40:44.527Z,0.63
2024-03-11T12:43:23.577Z,0.80
2024-03-11T12:45:55.996Z,0.73
2024-03-11T12:48:24.499Z,1.42
2024-03-11T12:50:56.712Z,0.60
2024-03-11T12:53:25.807Z,1.35
2024-03-11T12:56:08.219Z,0.80
2024-03-11T12:58:37.507Z,1.70
2024-03-11T13:01:10.817Z,2.15
2024-03-11T13:03:41.147Z,1.80
2024-03-11T13:06:10.953Z,0.90
2024-03-11T13:08:42.269Z,0.70
2024-03-11T13:11:10.662Z,0.60
2024-03-11T13:13:42.478Z,0.45
2024-03-11T13:16:11.057Z,0.60
2024-03-11T13:18:41.285Z,0.68
2024-03-11T13:21:09.314Z,1.25
2024-03-11T13:23:44.402Z,0.47
2024-03-11T13:26:13.142Z,0.70
2024-03-11T13:28:40.907Z,0.43
2024-03-11T13:31:12.519Z,0.70
2024-03-11T13:33:44.655Z,0.50
2024-03-11T13:36:12.787Z,0.50
2024-03-11T13:38:39.727Z,0.82
2024-03-11T13:41:07.963Z,0.60
2024-03-11T13:43:35.570Z,0.70
2024-03-11T13:46:02.674Z,0.52
2024-03-11T13:48:29.739Z,0.40
2024-03-11T13:50:58.117Z,1.05
2024-03-11T13:53:25.367Z,1.05
2024-03-11T13:55:52.958Z,0.80
2024-03-11T13:58:20.923Z,0.70
2024-03-11T14:00:49.372Z,0.70
2024-03-11T14:03:20.620Z,0.70
2024-03-11T14:05:47.903Z,1.90
2024-03-11T14:08:15.078Z,0.75
2024-03-11T14:10:44.435Z,0.55
2024-03-11T14:13:12.806Z,0.40
2024-03-11T14:15:39.605Z,0.63
2024-03-11T14:18:06.930Z,0.60
2024-03-11T14:20:34.063Z,0.80
2024-03-11T14:23:01.802Z,0.90
2024-03-11T14:25:32.367Z,0.82
2024-03-11T14:28:00.308Z,0.50
2024-03-11T14:30:35.608Z,0.68
2024-03-11T14:33:08.417Z,0.80
2024-03-11T14:35:36.894Z,0.80
2024-03-11T14:38:03.789Z,0.60
2024-03-11T14:40:30.907Z,1.50
2024-03-11T14:42:58.405Z,1.38
2024-03-11T14:45:26.343Z,0.68
2024-03-11T14:47:53.380Z,0.73
2024-03-11T14:50:20.330Z,1.73
2024-03-11T14:52:47.759Z,1.58
2024-03-11T14:55:14.521Z,0.82
2024-03-11T14:57:43.315Z,1.98
2024-03-11T15:00:21.583Z,3.42
2024-03-11T15:02:52.970Z,3.03
2024-03-11T15:05:20.508Z,1.30
2024-03-11T15:07:50.871Z,0.80
2024-03-11T15:10:20.753Z,4.85
2024-03-11T15:12:47.483Z,1.00
2024-03-11T15:15:16.249Z,2.63
2024-03-11T15:17:43.052Z,2.72
2024-03-11T15:20:10.554Z,2.65
2024-03-11T15:22:37.877Z,1.20
2024-03-11T15:25:05.713Z,0.60
2024-03-11T15:27:33.158Z,1.23
2024-03-11T15:29:59.932Z,2.53
2024-03-11T15:32:26.684Z,0.90
2024-03-11T15:34:54.151Z,0.88
2024-03-11T15:37:20.845Z,0.93
2024-03-11T15:39:48.696Z,0.57
2024-03-11T15:42:16.603Z,17.60
2024-03-11T15:44:43.412Z,6.93
2024-03-11T15:47:10.883Z,5.65
2024-03-11T15:49:37.644Z,6.07
2024-03-11T15:52:04.738Z,5.68
2024-03-11T15:54:32.408Z,20.00
2024-03-11T15:56:59.443Z,4.93
2024-03-11T15:59:28.221Z,1.25
2024-03-11T16:01:57.838Z,2.70
2024-03-11T16:04:24.658Z,1.88
2024-03-11T16:06:53.135Z,1.15
2024-03-11T16:09:40.166Z,0.90
2024-03-11T16:12:07.532Z,0.90
2024-03-11T16:14:34.251Z,0.80
2024-03-11T16:17:01.622Z,0.63
2024-03-11T16:19:30.445Z,0.77
2024-03-11T16:21:57.517Z,0.47
2024-03-11T16:24:24.293Z,0.65
2024-03-11T16:26:52.165Z,0.50
2024-03-11T16:29:18.864Z,0.85
2024-03-11T16:31:47.070Z,0.65
2024-03-11T16:34:13.928Z,1.17
2024-03-11T16:36:40.704Z,1.88
2024-03-11T16:39:09.295Z,1.27
2024-03-11T16:41:39.064Z,2.03
2024-03-11T16:44:07.609Z,1.50
2024-03-11T16:46:35.127Z,1.25
2024-03-11T16:49:03.705Z,0.93
2024-03-11T16:51:31.237Z,0.70
2024-03-11T16:53:58.306Z,0.57
2024-03-11T16:56:30.644Z,1.30
2024-03-11T16:58:58.302Z,1.80
2024-03-11T17:01:26.751Z,0.90
2024-03-11T17:03:54.443Z,0.70
2024-03-11T17:06:22.137Z,0.93
2024-03-11T17:08:49.381Z,2.00
2024-03-11T17:11:16.569Z,1.23
2024-03-11T17:13:46.606Z,1.00
2024-03-11T17:16:15.025Z,1.40
2024-03-11T17:18:42.083Z,1.55
2024-03-11T17:21:11.495Z,1.25
2024-03-11T17:23:38.972Z,1.30
2024-03-11T17:26:09.660Z,1.48
2024-03-11T17:28:37.016Z,1.88
2024-03-11T17:31:04.285Z,1.60
2024-03-11T17:33:32.593Z,1.83
2024-03-11T17:36:00.526Z,1.20
2024-03-11T17:38:27.572Z,1.90
2024-03-11T17:40:55.279Z,1.58
2024-03-11T17:43:23.696Z,1.33
2024-03-11T17:45:51.242Z,30.77
2024-03-11T17:48:23.370Z,5.72
2024-03-11T17:50:51.585Z,3.55
2024-03-11T17:53:18.939Z,4.00
2024-03-11T17:55:46.093Z,5.20
2024-03-11T17:58:15.927Z,4.63
2024-03-11T18:00:48.014Z,4.25
2024-03-11T18:03:16.374Z,6.10
2024-03-11T18:05:45.634Z,4.90
2024-03-11T18:08:13.335Z,3.10
2024-03-11T18:10:42.096Z,2.85
2024-03-11T18:13:14.314Z,2.90
2024-03-11T18:15:42.055Z,5.53
2024-03-11T18:18:11.286Z,7.97
2024-03-11T18:20:41.678Z,5.28
2024-03-11T18:23:13.639Z,5.25
2024-03-11T18:25:41.746Z,5.90
2024-03-11T18:28:09.617Z,5.90
2024-03-11T18:30:37.129Z,6.85
2024-03-11T18:33:06.178Z,4.60
2024-03-11T18:35:37.003Z,4.68
2024-03-11T18:38:07.467Z,6.63
2024-03-11T18:40:35.676Z,3.80
2024-03-11T18:43:05.681Z,3.60
2024-03-11T18:45:36.412Z,5.10
2024-03-11T18:48:03.580Z,4.78
2024-03-11T18:50:30.453Z,3.50
2024-03-11T18:53:00.811Z,4.88
2024-03-11T18:55:32.858Z,3.55
2024-03-11T18:58:00.909Z,3.78
2024-03-11T19:00:29.731Z,4.03
2024-03-11T19:03:01.016Z,5.95
2024-03-11T19:05:28.943Z,5.70
2024-03-11T19:07:56.831Z,5.68
2024-03-11T19:10:26.669Z,5.40
2024-03-11T19:12:55.130Z,6.60
2024-03-11T19:15:27.357Z,6.78
2024-03-11T19:17:55.771Z,8.00
2024-03-11T19:20:24.479Z,8.75
2024-03-11T19:22:57.170Z,6.57
2024-03-11T19:25:25.458Z,6.07
2024-03-11T19:27:53.303Z,5.80
2024-03-11T19:30:23.377Z,7.43
2024-03-11T19:32:53.814Z,7.20
2024-03-11T19:35:21.718Z,6.03
2024-03-11T19:38:27.018Z,5.15
2024-03-11T19:41:27.014Z,4.68
2024-03-11T19:44:32.881Z,4.50
2024-03-11T19:47:36.247Z,4.18
2024-03-11T19:50:39.639Z,4.70
2024-03-11T19:53:57.787Z,4.55
2024-03-11T19:57:13.574Z,4.68
2024-03-11T20:00:02.065Z,5.18
2024-03-11T20:02:57.085Z,5.03
2024-03-11T20:05:51.480Z,4.78
2024-03-11T20:08:31.553Z,4.60
2024-03-11T20:11:32.538Z,4.07
2024-03-11T20:14:28.878Z,3.58
2024-03-11T20:17:18.996Z,4.60
2024-03-11T20:20:16.692Z,4.43
2024-03-11T20:22:56.947Z,6.40
2024-03-11T20:25:48.119Z,6.10
2024-03-11T20:29:04.411Z,6.28
2024-03-11T20:31:36.684Z,8.02
2024-03-11T20:34:03.679Z,7.15
2024-03-11T20:36:30.465Z,5.55
2024-03-11T20:38:57.243Z,5.15
2024-03-11T20:41:24.075Z,4.05
2024-03-11T20:43:50.943Z,4.07
2024-03-11T20:46:18.450Z,3.95
2024-03-11T20:48:46.428Z,3.80
2024-03-11T20:51:14.980Z,5.43
2024-03-11T20:53:42.766Z,4.22
2024-03-11T20:56:11.057Z,4.30
2024-03-11T20:58:38.222Z,4.32
2024-03-11T21:01:07.550Z,5.30
2024-03-11T21:03:34.606Z,4.30
2024-03-11T21:06:01.876Z,6.70
2024-03-11T21:08:29.790Z,4.22
2024-03-11T21:10:56.542Z,4.93
2024-03-11T21:13:23.298Z,5.00
2024-03-11T21:15:50.550Z,4.88
2024-03-11T21:18:21.371Z,5.22
2024-03-11T21:21:06.997Z,3.90
2024-03-11T21:23:41.476Z,4.22
2024-03-11T21:26:38.702Z,5.25
2024-03-11T21:31:37.709Z,5.55
2024-03-11T21:34:06.400Z,4.30
2024-03-11T21:36:33.455Z,3.78
2024-03-11T21:39:00.278Z,4.80
2024-03-11T21:41:27.544Z,4.53
2024-03-11T21:43:55.098Z,8.32
2024-03-11T21:46:25.101Z,5.70
2024-03-11T21:48:52.541Z,5.63
2024-03-11T21:51:21.974Z,6.00
2024-03-11T21:53:48.665Z,5.07
2024-03-11T21:56:17.419Z,6.75
2024-03-11T21:58:44.150Z,8.00
2024-03-11T22:01:11.321Z,5.63
2024-03-11T22:03:38.161Z,4.13
2024-03-11T22:06:05.534Z,5.10
2024-03-11T22:08:32.182Z,5.57
2024-03-11T22:10:58.938Z,6.00
2024-03-11T22:13:25.605Z,4.38
2024-03-11T22:15:52.549Z,4.72
2024-03-11T22:18:20.326Z,5.70
2024-03-11T22:20:47.247Z,4.50
2024-03-11T22:23:14.147Z,5.03
2024-03-11T22:25:40.835Z,4.57
2024-03-11T22:28:07.664Z,4.85
2024-03-11T22:30:34.497Z,4.85
2024-03-11T22:33:01.595Z,6.22
2024-03-11T22:35:28.961Z,6.63
2024-03-11T22:37:56.806Z,6.00
2024-03-11T22:40:23.664Z,5.75
2024-03-11T22:42:50.597Z,6.35
2024-03-11T22:45:17.385Z,6.75
2024-03-11T22:47:44.863Z,6.47
2024-03-11T22:50:11.660Z,5.97
2024-03-11T22:52:38.764Z,7.63
2024-03-11T22:55:07.565Z,9.85
2024-03-11T22:57:35.981Z,8.88
2024-03-11T23:00:17.335Z,8.68
2024-03-11T23:02:44.066Z,7.75
2024-03-11T23:05:10.731Z,8.07
2024-03-11T23:07:37.421Z,8.52
2024-03-11T23:10:05.995Z,8.55
2024-03-11T23:16:03.227Z,7.97
2024-03-11T23:18:30.722Z,6.95
2024-03-11T23:20:58.635Z,5.05
2024-03-11T23:23:25.425Z,6.03
2024-03-11T23:25:52.092Z,6.18
2024-03-11T23:28:19.103Z,6.20
2024-03-11T23:30:46.804Z,6.85
2024-03-11T23:33:14.633Z,5.82
2024-03-11T23:35:42.534Z,5.57
2024-03-11T23:38:09.277Z,4.78
2024-03-11T23:40:37.720Z,4.63
2024-03-11T23:43:06.521Z,5.15
2024-03-11T23:45:33.496Z,5.15
2024-03-11T23:48:00.361Z,4.43
2024-03-11T23:50:27.442Z,4.78
2024-03-11T23:52:54.426Z,5.50
2024-03-11T23:55:21.330Z,6.85
2024-03-11T23:57:48.581Z,5.88
